Time;durP1;ratioP1;P1;durP2;ratioP2;P2;SDS_P1;SDS_P2;PMS_P1;PMS_P2;Temp;Humidity;BMP_temperature;BMP_pressure;BME280_temperature;BME280_humidity;BME280_pressure;Samples;Min_cycle;Max_cycle;Signal;HPM_P1;HPM_P2
2022/06/23 00:02:25;;;;;;;;;4.20;4.20;;;;;21.25;46.89;99109.31;6334084;20;2741959;-64
2022/06/23 00:05:04;;;;;;;;;4.00;4.00;;;;;21.21;47.30;99113.41;6311375;20;2741998;-64
2022/06/23 00:07:38;;;;;;;;;4.00;4.00;;;;;21.17;48.01;99111.19;6335735;20;2748218;-64
2022/06/23 00:10:44;;;;;;;;;3.00;3.00;;;;;21.20;46.94;99105.41;6304418;20;1920102;-64
2022/06/23 00:13:32;;;;;;;;;4.33;4.33;;;;;21.12;48.30;99114.47;6313626;20;2745210;-65
2022/06/23 00:16:01;;;;;;;;;3.67;3.67;;;;;;;;6312663;20;2746130;-64
2022/06/23 00:18:37;;;;;;;;;3.67;3.67;;;;;21.02;47.98;99119.28;6310920;20;2756704;-64
2022/06/23 00:21:31;;;;;;;;;5.00;4.00;;;;;20.76;49.05;99119.53;6310886;20;2735693;-64
2022/06/23 00:24:09;;;;;;;;;6.33;5.33;;;;;20.91;48.63;99122.41;6311034;20;2766323;-64
2022/06/23 00:26:39;;;;;;;;;4.60;4.60;;;;;20.89;48.30;99124.44;6333620;20;2745111;-64
2022/06/23 00:29:15;;;;;;;;;5.00;5.00;;;;;20.86;49.71;99122.06;6313118;20;2737759;-64
2022/06/23 00:32:03;;;;;;;;;2.00;2.00;;;;;20.69;50.45;99124.81;6310850;20;2733654;-59
2022/06/23 00:35:01;;;;;;;;;3.00;3.00;;;;;20.65;49.59;99123.47;6283292;20;2744047;-59
2022/06/23 00:37:29;;;;;;;;;5.00;5.00;;;;;20.55;50.83;99122.81;6287531;20;2742960;-59
2022/06/23 00:40:06;;;;;;;;;5.00;4.00;;;;;20.39;50.99;99119.03;6291123;20;2745104;-60
2022/06/23 00:42:47;;;;;;;;;4.67;3.33;;;;;20.59;51.22;99126.91;6287258;20;2748322;-59
2022/06/23 00:45:34;;;;;;;;;6.50;3.50;;;;;20.51;51.21;99118.66;6313722;20;2750299;-59
2022/06/23 00:48:13;;;;;;;;;3.00;3.00;;;;;20.45;51.17;99117.47;6292345;20;2727373;-59
2022/06/23 00:51:17;;;;;;;;;4.00;4.00;;;;;20.47;51.07;99120.91;6302583;20;1807653;-59
2022/06/23 00:54:02;;;;;;;;;3.67;3.67;;;;;20.49;51.65;99120.75;6315729;20;2750282;-59
2022/06/23 00:57:13;;;;;;;;;4.20;3.00;;;;;20.44;51.80;99112.22;6338482;20;2748159;-59
2022/06/23 00:59:58;;;;;;;;;3.00;3.00;;;;;20.34;52.84;99105.06;6315388;20;2739838;-59
2022/06/23 01:02:43;;;;;;;;;4.00;4.00;;;;;20.35;53.24;99108.63;6290132;20;2749230;-58
2022/06/23 01:05:32;;;;;;;;;5.00;4.00;;;;;20.20;52.81;99116.66;6317140;20;2746086;-59
2022/06/23 01:08:22;;;;;;;;;4.50;4.00;;;;;20.27;52.84;99135.91;6315870;20;2737749;-59
2022/06/23 01:11:51;;;;;;;;;4.00;4.00;;;;;20.05;53.48;99151.91;6312501;20;2750359;-59
2022/06/23 01:14:36;;;;;;;;;5.00;3.00;;;;;20.06;54.16;99158.19;6281920;20;2747209;-60
2022/06/23 01:18:12;;;;;;;;;4.00;4.00;;;;;20.19;54.88;99155.81;6286620;20;2747405;-59
2022/06/23 01:21:07;;;;;;;;;4.00;4.00;;;;;20.20;55.13;99146.66;6282721;20;2748206;-58
2022/06/23 01:24:34;;;;;;;;;3.00;3.00;;;;;19.95;55.81;99143.03;6315330;20;2750294;-58
2022/06/23 01:27:48;;;;;;;;;6.00;4.00;;;;;20.16;55.95;99145.25;6291336;20;2747128;-58
2022/06/23 01:30:21;;;;;;;;;6.00;5.00;;;;;19.91;57.41;99137.06;6306745;20;2740918;-59
2022/06/23 01:33:22;;;;;;;;;5.50;5.50;;;;;19.77;57.76;99145.88;6317857;20;2737815;-57
2022/06/23 01:36:13;;;;;;;;;5.00;5.00;;;;;19.89;57.80;99144.56;6285726;20;2739861;-57
2022/06/23 01:39:11;;;;;;;;;4.00;4.00;;;;;19.97;57.35;99145.59;6289377;20;2738906;-58
2022/06/23 01:41:59;;;;;;;;;2.80;2.80;;;;;20.01;55.79;99142.38;6310297;20;2737793;-57
2022/06/23 01:45:00;;;;;;;;;4.00;4.00;;;;;19.66;57.44;99147.06;6316262;20;2739862;-59
2022/06/23 01:47:46;;;;;;;;;4.00;4.00;;;;;19.95;55.51;99132.97;6286047;20;2751301;-58
2022/06/23 01:50:14;;;;;;;;;6.00;6.00;;;;;20.01;55.83;99158.72;6282585;20;2737786;-58
2022/06/23 01:52:47;;;;;;;;;6.00;6.00;;;;;19.73;57.72;99174.50;6289178;20;2741939;-59
2022/06/23 01:55:32;;;;;;;;;3.50;3.00;;;;;19.39;65.52;99160.91;6284734;20;2751376;-59
2022/06/23 01:58:10;;;;;;;;;4.00;4.00;;;;;19.21;68.99;99159.09;6310381;20;2750250;-58
2022/06/23 02:00:48;;;;;;;;;5.00;4.60;;;;;18.64;71.39;99165.03;6336589;20;2742991;-59
2022/06/23 02:03:41;;;;;;;;;2.00;2.00;;;;;18.88;72.40;99165.38;6313744;20;2746074;-58
2022/06/23 02:06:26;;;;;;;;;5.00;5.00;;;;;18.40;73.69;99167.53;6307704;20;2745068;-59
2022/06/23 02:09:46;;;;;;;;;0.00;0.00;;;;;18.36;74.96;99153.44;6326702;20;1778498;-59
2022/06/23 02:13:27;;;;;;;;;7.50;4.50;;;;;18.12;75.71;99155.94;6311793;20;2739895;-59
2022/06/23 02:16:19;;;;;;;;;6.00;6.00;;;;;18.61;70.65;99159.88;6280772;20;2740935;-59
2022/06/23 02:18:57;;;;;;;;;7.00;7.00;;;;;18.25;74.34;99156.41;6281091;20;2744055;-64
2022/06/23 02:21:43;;;;;;;;;6.00;6.00;;;;;18.02;73.60;99141.59;6278962;20;2736781;-63
2022/06/23 02:24:25;;;;;;;;;4.50;4.50;;;;;18.02;76.63;99131.56;6283436;20;2744074;-58
2022/06/23 02:27:08;;;;;;;;;7.00;7.00;;;;;17.78;78.44;99124.00;6283689;20;2744084;-59
2022/06/23 02:30:00;;;;;;;;;5.50;5.00;;;;;17.44;80.61;99121.94;6284186;20;2754685;-59
2022/06/23 02:33:04;;;;;;;;;7.00;7.00;;;;;18.17;75.91;99132.72;6284239;20;2741021;-58
2022/06/23 02:36:15;;;;;;;;;5.00;5.00;;;;;18.23;75.77;99149.41;6281043;20;2745156;-59
2022/06/23 02:39:00;;;;;;;;;8.00;5.00;;;;;18.21;74.60;99152.28;6284844;20;2750540;-58
2022/06/23 02:41:44;;;;;;;;;3.50;3.50;;;;;18.33;74.41;99161.06;6286244;20;2743036;-59
2022/06/23 02:44:41;;;;;;;;;5.00;5.00;;;;;18.42;73.16;99176.41;6283540;20;2733812;-58
2022/06/23 02:47:29;;;;;;;;;6.00;6.00;;;;;18.18;75.54;99185.19;6285227;20;2748169;-58
2022/06/23 02:50:12;;;;;;;;;9.00;7.00;;;;;17.78;77.57;99175.59;6284454;20;2728490;-59
2022/06/23 02:53:12;;;;;;;;;6.00;5.00;;;;;18.01;75.05;99176.03;6312068;20;2733620;-59
2022/06/23 02:56:14;;;;;;;;;5.80;5.80;;;;;17.74;75.57;99171.47;6339955;20;2746162;-59
2022/06/23 02:59:05;;;;;;;;;1.50;1.00;;;;;17.88;73.66;99164.72;6314330;20;2727340;-59
2022/06/23 03:01:56;;;;;;;;;9.80;5.20;;;;;18.02;72.81;99175.03;6302356;20;2752387;-59
2022/06/23 03:04:42;;;;;;;;;5.50;5.50;;;;;18.21;71.66;99191.16;6316593;20;2736827;-58
2022/06/23 03:07:49;;;;;;;;;9.00;5.50;;;;;17.63;75.55;99180.69;6283868;20;2737753;-59
2022/06/23 03:10:42;;;;;;;;;4.00;4.00;;;;;18.02;73.25;99185.03;6304510;20;2742953;-59
2022/06/23 03:13:48;;;;;;;;;5.71;5.00;;;;;17.99;72.84;99178.06;6352848;20;3451378;-63
2022/06/23 03:16:35;;;;;;;;;4.00;4.00;;;;;17.61;76.22;99179.97;6314049;20;2744014;-64
2022/06/23 03:19:22;;;;;;;;;7.40;5.40;;;;;17.48;75.79;99176.75;6306620;20;2740937;-64
2022/06/23 03:22:28;;;;;;;;;6.00;6.00;;;;;17.97;72.24;99193.66;6313179;20;2735698;-63
2022/06/23 03:25:23;;;;;;;;;5.00;5.00;;;;;17.93;72.84;99186.81;6285408;20;2735721;-64
2022/06/23 03:28:33;;;;;;;;;6.00;6.00;;;;;17.78;73.76;99189.19;6283026;20;2743037;-63
2022/06/23 03:31:16;;;;;;;;;6.00;6.00;;;;;18.18;71.92;99196.91;6276402;20;2737779;-63
2022/06/23 03:34:01;;;;;;;;;9.00;6.00;;;;;18.12;72.90;99205.69;6282044;20;2734679;-62
2022/06/23 03:37:44;;;;;;;;;6.00;6.00;;;;;18.31;69.71;99218.28;6296475;20;2739834;-63
2022/06/23 03:43:49;;;;;;;;;6.00;5.00;;;;;18.66;66.77;99227.41;6314202;20;2743118;-63
2022/06/23 03:46:58;;;;;;;;;5.00;5.00;;;;;18.25;69.13;99223.50;6306308;20;2747220;-63
2022/06/23 03:49:51;;;;;;;;;6.00;6.00;;;;;18.51;69.41;99228.97;6313935;20;2737793;-63
2022/06/23 03:52:43;;;;;;;;;8.50;7.00;;;;;18.68;68.02;99240.84;6280586;20;2739923;-63
2022/06/23 03:55:39;;;;;;;;;6.00;6.00;;;;;18.79;67.38;99244.19;6281064;20;2737763;-62
2022/06/23 03:58:42;;;;;;;;;5.50;5.50;;;;;18.69;68.81;99248.00;6283658;20;2740922;-62
2022/06/23 04:01:41;;;;;;;;;5.50;5.50;;;;;18.41;70.28;99237.22;6279429;20;2734689;-58
2022/06/23 04:04:43;;;;;;;;;6.50;6.50;;;;;18.29;71.10;99241.19;6282074;20;2736743;-59
2022/06/23 04:07:29;;;;;;;;;5.50;4.00;;;;;18.31;71.06;99237.28;6278800;20;2747186;-58
2022/06/23 04:10:27;;;;;;;;;8.00;8.00;;;;;18.89;65.77;99249.56;6283730;20;2737805;-59
2022/06/23 04:13:38;;;;;;;;;6.86;5.86;;;;;19.37;62.65;99264.50;6327489;20;3457505;-59
2022/06/23 04:16:12;;;;;;;;;5.00;5.00;;;;;19.53;61.67;99271.91;6340273;20;2737748;-58
2022/06/23 04:18:47;;;;;;;;;8.80;6.00;;;;;19.61;60.20;99274.66;6338041;20;2741933;-58
2022/06/23 04:21:25;;;;;;;;;5.40;5.40;;;;;19.64;60.46;99270.75;6336996;20;2739872;-58
2022/06/23 04:24:03;;;;;;;;;5.29;4.00;;;;;19.55;60.81;99271.75;6357631;20;3446085;-55
2022/06/23 04:26:42;;;;;;;;;6.60;6.00;;;;;19.90;59.69;99259.84;6339763;20;2744079;-57
2022/06/23 04:29:36;;;;;;;;;6.20;6.20;;;;;19.67;60.74;99265.91;6340408;20;2737350;-59
2022/06/23 04:32:29;;;;;;;;;6.00;5.00;;;;;19.86;59.91;99259.31;6314398;20;2725281;-59
2022/06/23 04:35:05;;;;;;;;;5.60;5.00;;;;;20.10;57.75;99271.34;6310492;20;2738957;-62
2022/06/23 04:38:13;;;;;;;;;6.80;5.80;;;;;20.30;57.23;99286.38;6343155;20;2744069;-59
2022/06/23 04:40:41;;;;;;;;;5.50;5.50;;;;;20.01;58.59;99294.09;6316597;20;2748291;-59
2022/06/23 04:43:41;;;;;;;;;5.00;5.00;;;;;20.10;58.24;99298.59;6292156;20;2740950;-61
2022/06/23 04:46:20;;;;;;;;;7.00;6.00;;;;;20.13;60.06;99303.69;6291377;20;2736727;-60
2022/06/23 04:49:01;;;;;;;;;7.00;5.50;;;;;20.02;62.06;99306.75;6290595;20;2745051;-61
2022/06/23 04:51:49;;;;;;;;;5.20;5.20;;;;;20.63;59.40;99305.56;6314961;20;2739821;-60
2022/06/23 04:54:43;;;;;;;;;5.20;5.20;;;;;20.75;59.74;99306.94;6342619;20;2733582;-61
2022/06/23 04:57:20;;;;;;;;;5.60;5.60;;;;;20.79;58.39;99300.13;6343076;20;2747205;-61
2022/06/23 04:59:54;;;;;;;;;6.00;5.60;;;;;20.90;58.00;99309.84;6342758;20;2737782;-61
2022/06/23 05:02:50;;;;;;;;;4.00;4.00;;;;;21.10;57.41;99313.09;6344326;20;2744020;-61
2022/06/23 05:05:28;;;;;;;;;4.60;4.60;;;;;21.36;55.33;99323.81;6341996;20;2741908;-61
2022/06/23 05:08:08;;;;;;;;;4.00;3.33;;;;;21.21;55.45;99326.38;6321490;20;2743029;-61
2022/06/23 05:11:03;;;;;;;;;5.60;3.40;;;;;21.20;56.20;99327.41;6344019;20;2748211;-61
2022/06/23 05:14:02;;;;;;;;;5.00;3.40;;;;;21.66;53.90;99332.31;6343408;20;2745079;-61
2022/06/23 05:16:40;;;;;;;;;3.67;3.67;;;;;21.20;55.14;99327.41;6318392;20;2744009;-61
2022/06/23 05:19:25;;;;;;;;;3.80;3.80;;;;;21.54;53.27;99330.97;6344675;20;2750281;-61
2022/06/23 05:22:20;;;;;;;;;4.00;4.00;;;;;21.86;52.33;99335.53;6286551;20;2749304;-61
2022/06/23 05:24:51;;;;;;;;;4.20;3.60;;;;;22.19;50.55;99351.84;6339967;20;2745127;-61
2022/06/23 05:27:31;;;;;;;;;5.33;3.00;;;;;22.08;49.65;99351.16;6317117;20;2747199;-60
2022/06/23 05:30:27;;;;;;;;;4.80;3.00;;;;;22.08;50.24;99356.63;6340089;20;2744049;-56
2022/06/23 05:33:24;;;;;;;;;3.00;3.00;;;;;22.26;48.96;99352.84;6284432;20;2748377;-55
2022/06/23 05:36:04;;;;;;;;;3.40;3.40;;;;;22.39;48.76;99349.53;6341366;20;2749226;-56
2022/06/23 05:39:02;;;;;;;;;3.20;3.20;;;;;22.64;47.39;99344.75;6336935;20;2744010;-56
2022/06/23 05:41:43;;;;;;;;;4.00;3.00;;;;;22.89;46.20;99357.25;6338023;20;2739938;-57
2022/06/23 05:44:32;;;;;;;;;3.33;3.00;;;;;23.07;45.33;99356.97;6317513;20;2744032;-55
2022/06/23 05:47:03;;;;;;;;;3.40;3.40;;;;;23.03;44.89;99360.25;6340601;20;2756557;-57
2022/06/23 05:49:43;;;;;;;;;4.00;4.00;;;;;22.69;45.68;99359.59;6283462;20;2755594;-55
2022/06/23 05:52:32;;;;;;;;;3.00;3.00;;;;;23.04;45.49;99370.16;6343100;20;2735771;-57
2022/06/23 05:55:16;;;;;;;;;3.00;3.00;;;;;23.31;43.65;99377.00;6340517;20;2739922;-55
2022/06/23 05:58:29;;;;;;;;;3.00;3.00;;;;;23.45;44.77;99379.75;6319732;20;2746085;-52
2022/06/23 06:01:37;;;;;;;;;2.00;2.00;;;;;23.48;42.06;99380.44;6318547;20;2737788;-57
2022/06/23 06:04:25;;;;;;;;;0.80;0.80;;;;;23.57;42.17;99384.81;6342964;20;2726345;-58
2022/06/23 06:06:54;;;;;;;;;3.00;3.00;;;;;23.74;41.61;99380.88;6319053;20;2745181;-58
2022/06/23 06:09:35;;;;;;;;;3.00;3.00;;;;;24.15;40.42;99388.69;6321461;20;2754545;-58
2022/06/23 06:12:20;;;;;;;;;2.00;2.00;;;;;24.34;40.78;99391.88;6342832;20;2739831;-58
2022/06/23 06:15:26;;;;;;;;;5.00;3.20;;;;;24.58;40.39;99393.50;6343264;20;2746145;-58
2022/06/23 06:18:16;;;;;;;;;1.00;1.00;;;;;24.82;39.26;99392.28;6319962;20;2726279;-58
2022/06/23 06:20:46;;;;;;;;;4.00;2.80;;;;;24.85;38.90;99397.41;6340468;20;2736763;-57
2022/06/23 06:24:03;;;;;;;;;2.00;2.00;;;;;25.68;38.66;99400.56;6317092;20;2741979;-60
2022/06/23 06:26:42;;;;;;;;;3.00;3.00;;;;;25.40;37.54;99404.13;6342203;20;2731552;-60
2022/06/23 06:29:29;;;;;;;;;2.00;2.00;;;;;25.69;37.56;99403.09;6340748;20;2729531;-60
2022/06/23 06:32:33;;;;;;;;;1.40;1.40;;;;;26.01;37.73;99406.34;6339111;20;2724277;-58
2022/06/23 06:35:30;;;;;;;;;2.80;2.80;;;;;25.86;36.25;99411.97;6341211;20;2738798;-58
2022/06/23 06:38:07;;;;;;;;;1.80;1.00;;;;;25.99;36.01;99419.47;6340460;20;2735700;-58
2022/06/23 06:40:42;;;;;;;;;3.00;3.00;;;;;26.62;35.84;99420.28;6339351;20;2748239;-58
2022/06/23 06:43:29;;;;;;;;;3.60;2.80;;;;;27.21;34.55;99421.56;6309395;20;2735700;-58
2022/06/23 06:46:00;;;;;;;;;3.00;3.00;;;;;26.79;35.18;99420.75;6338822;20;2733606;-58
2022/06/23 06:48:37;;;;;;;;;3.80;3.00;;;;;26.55;35.05;99424.06;6307270;20;2747158;-58
2022/06/23 06:51:29;;;;;;;;;3.60;3.60;;;;;25.94;37.10;99428.31;6306852;20;2739973;-58
2022/06/23 06:54:44;;;;;;;;;2.40;2.40;;;;;26.58;35.33;99424.47;6342559;20;2749230;-58
2022/06/23 06:57:35;;;;;;;;;1.00;1.00;;;;;26.86;34.83;99437.34;6311497;20;2724291;-58
2022/06/23 07:00:23;;;;;;;;;4.00;3.80;;;;;26.78;35.08;99434.72;6338655;20;2740905;-58
2022/06/23 07:03:03;;;;;;;;;2.40;2.40;;;;;26.36;35.44;99437.47;6307766;20;2738829;-58
2022/06/23 07:05:56;;;;;;;;;3.40;3.40;;;;;26.61;35.28;99437.84;6309224;20;2740913;-58
2022/06/23 07:09:15;;;;;;;;;3.40;3.00;;;;;26.86;34.36;99440.94;6342254;20;2749244;-58
2022/06/23 07:11:58;;;;;;;;;3.00;3.00;;;;;27.36;34.90;99438.75;6311234;20;2733644;-58
2022/06/23 07:14:45;;;;;;;;;5.20;4.20;;;;;27.23;35.03;99437.91;6343929;20;2748217;-57
2022/06/23 07:17:57;;;;;;;;;3.00;3.00;;;;;27.52;34.62;99436.66;6309104;20;2733658;-55
2022/06/23 07:20:40;;;;;;;;;3.00;2.80;;;;;28.26;33.06;99440.28;6341201;20;2739904;-58
2022/06/23 07:23:28;;;;;;;;;3.00;2.00;;;;;28.35;31.85;99436.19;6341538;20;2729431;-53
2022/06/23 07:26:38;;;;;;;;;3.00;3.00;;;;;28.08;31.15;99436.25;6337706;20;2728409;-50
2022/06/23 07:29:41;;;;;;;;;4.00;2.40;;;;;27.55;32.80;99439.84;6340547;20;2737789;-52
2022/06/23 07:32:46;;;;;;;;;2.00;2.00;;;;;28.51;30.57;99444.03;6340549;20;2743995;-57
2022/06/23 07:35:27;;;;;;;;;5.00;3.00;;;;;28.22;31.24;99442.59;6309661;20;2746147;-57
2022/06/23 07:38:14;;;;;;;;;3.00;3.00;;;;;28.26;31.39;99449.41;6311324;20;2752414;-55
2022/06/23 07:41:07;;;;;;;;;2.00;2.00;;;;;27.41;31.48;99453.81;6285442;20;2743999;-49
2022/06/23 07:44:21;;;;;;;;;3.00;3.00;;;;;28.41;31.44;99457.41;6340264;20;2740930;-56
2022/06/23 07:46:51;;;;;;;;;3.00;3.00;;;;;28.71;30.69;99462.50;6342461;20;2737872;-53
2022/06/23 07:49:27;;;;;;;;;4.40;2.80;;;;;28.86;30.79;99461.16;6312256;20;2742023;-56
2022/06/23 07:51:57;;;;;;;;;2.60;2.60;;;;;29.12;29.16;99464.88;6311324;20;2739859;-58
2022/06/23 07:54:30;;;;;;;;;3.00;3.00;;;;;29.40;28.63;99467.25;6312441;20;2729481;-61
2022/06/23 07:56:59;;;;;;;;;3.00;3.00;;;;;29.60;28.97;99464.38;6344172;20;2751288;-61
2022/06/23 07:59:58;;;;;;;;;2.40;2.40;;;;;28.95;29.39;99470.03;6311613;20;2739868;-60
2022/06/23 08:02:41;;;;;;;;;2.00;2.00;;;;;29.66;28.30;99471.81;6311434;20;2743004;-60
2022/06/23 08:05:31;;;;;;;;;2.80;2.80;;;;;29.13;29.32;99468.50;6315399;20;2735699;-61
2022/06/23 08:08:03;;;;;;;;;3.60;2.00;;;;;29.52;29.43;99471.03;6313590;20;2727402;-60
2022/06/23 08:10:35;;;;;;;;;3.20;3.00;;;;;29.54;29.66;99474.44;6339525;20;2746103;-62
2022/06/23 08:13:22;;;;;;;;;2.33;2.33;;;;;30.39;27.55;99465.66;6298685;20;2725250;-63
2022/06/23 08:19:30;;;;;;;;;3.00;3.00;;;;;30.04;29.12;99467.25;6346584;20;2755544;-63
2022/06/23 08:22:14;;;;;;;;;3.40;3.40;;;;;29.69;28.46;99473.28;6310197;20;2754419;-61
2022/06/23 08:24:49;;;;;;;;;3.20;3.20;;;;;29.88;27.64;99475.03;6315122;20;2750260;-62
2022/06/23 08:27:44;;;;;;;;;4.00;3.00;;;;;30.31;28.40;99468.72;6312021;20;2744111;-62
2022/06/23 08:30:17;;;;;;;;;2.20;2.20;;;;;29.84;27.65;99475.72;6312117;20;2734620;-63
2022/06/23 08:32:51;;;;;;;;;3.00;3.00;;;;;30.23;27.63;99477.34;6315977;20;2752411;-62
2022/06/23 08:35:37;;;;;;;;;3.60;3.40;;;;;29.91;27.60;99474.59;6315319;20;2741955;-60
2022/06/23 08:38:21;;;;;;;;;4.00;3.67;;;;;29.90;27.85;99466.50;6288475;20;2750243;-61
2022/06/23 08:41:34;;;;;;;;;4.00;3.00;;;;;30.33;26.75;99466.59;6318376;20;2750441;-62
2022/06/23 08:45:01;;;;;;;;;2.80;2.80;;;;;30.37;26.72;99466.97;6345845;20;2741033;-62
2022/06/23 08:48:22;;;;;;;;;3.00;3.00;;;;;29.39;27.45;99459.22;6308540;20;2739842;-61
2022/06/23 08:51:43;;;;;;;;;2.00;2.00;;;;;29.72;27.46;99464.53;6307827;20;2728409;-59
2022/06/23 08:54:51;;;;;;;;;3.00;1.00;;;;;30.05;26.87;99474.50;6313197;20;2736759;-59
2022/06/23 08:57:45;;;;;;;;;4.00;4.00;;;;;30.13;27.18;99472.28;6345422;20;2737817;-58
2022/06/23 09:00:38;;;;;;;;;3.00;3.00;;;;;30.59;27.06;99464.56;6310491;20;2752340;-58
2022/06/23 09:03:45;;;;;;;;;5.00;4.00;;;;;30.80;26.70;99466.88;6311482;20;2748203;-59
2022/06/23 09:07:10;;;;;;;;;3.00;3.00;;;;;30.90;27.07;99466.38;6308629;20;2744155;-59
2022/06/23 09:09:42;;;;;;;;;3.00;3.00;;;;;30.86;26.15;99464.28;6288425;20;2739929;-60
2022/06/23 09:12:37;;;;;;;;;2.80;2.80;;;;;30.28;26.52;99466.41;6341811;20;2728397;-62
2022/06/23 09:15:24;;;;;;;;;3.20;3.20;;;;;30.94;25.51;99466.75;6311273;20;2752442;-61
2022/06/23 09:18:46;;;;;;;;;4.00;4.00;;;;;31.16;25.87;99467.97;6308161;20;2756520;-62
2022/06/23 09:21:37;;;;;;;;;2.80;2.80;;;;;30.90;25.92;99465.53;6311471;20;2737881;-61
2022/06/23 09:24:48;;;;;;;;;3.00;3.00;;;;;30.87;25.11;99468.78;6309206;20;2749243;-61
2022/06/23 09:27:51;;;;;;;;;4.00;4.00;;;;;30.93;25.50;99478.94;6310020;20;2747239;-62
2022/06/23 09:30:40;;;;;;;;;4.20;4.20;;;;;30.42;26.75;99469.06;6308759;20;2743381;-64
2022/06/23 09:34:22;;;;;;;;;2.00;2.00;;;;;29.93;26.95;99469.66;6312620;20;2744137;-65
2022/06/23 09:37:51;;;;;;;;;3.20;3.20;;;;;30.13;27.59;99463.13;6309973;20;2756496;-64
2022/06/23 09:40:57;;;;;;;;;3.00;3.00;;;;;30.15;27.78;99463.75;6307547;20;2754573;-62
2022/06/23 09:44:07;;;;;;;;;4.40;3.00;;;;;29.61;27.41;99462.44;6313060;20;2753399;-62
2022/06/23 09:46:54;;;;;;;;;1.00;0.00;;;;;28.96;28.01;99454.28;6305472;20;2727339;-64
2022/06/23 09:52:51;;;;;;;;;3.00;3.00;;;;;30.11;27.69;99468.03;6292867;20;3464808;-64
2022/06/23 09:55:58;;;;;;;;;3.00;3.00;;;;;30.45;26.30;99463.88;6368802;20;2746075;-63
2022/06/23 09:59:04;;;;;;;;;3.40;3.40;;;;;30.93;25.11;99460.34;6339228;20;2733880;-63
2022/06/23 10:01:54;;;;;;;;;2.60;2.60;;;;;29.79;25.88;99447.88;6337148;20;2732534;-63
2022/06/23 10:04:46;;;;;;;;;5.20;4.00;;;;;29.90;27.62;99461.81;6340961;20;2749197;-63
2022/06/23 10:08:03;;;;;;;;;2.80;2.80;;;;;28.78;28.18;99461.41;6334707;20;2753370;-63
2022/06/23 10:11:11;;;;;;;;;3.00;3.00;;;;;28.92;28.21;99458.56;6335488;20;2749346;-65
2022/06/23 10:14:07;;;;;;;;;4.40;3.00;;;;;29.49;27.99;99471.47;6333729;20;2743992;-65
2022/06/23 10:17:08;;;;;;;;;2.40;2.40;;;;;29.23;27.90;99458.66;6336888;20;2738917;-61
2022/06/23 10:20:21;;;;;;;;;5.40;4.80;;;;;29.31;28.03;99454.78;6336846;20;2750275;-61
2022/06/23 10:23:52;;;;;;;;;3.40;3.40;;;;;29.88;27.93;99463.13;6337347;20;2740873;-60
2022/06/23 10:26:44;;;;;;;;;3.20;3.20;;;;;30.23;26.37;99466.25;6339097;20;2742962;-61
2022/06/23 10:30:13;;;;;;;;;4.00;4.00;;;;;29.27;27.18;99459.06;6334243;20;2749366;-60
2022/06/23 10:34:05;;;;;;;;;7.00;3.00;;;;;29.75;26.51;99458.53;6336465;20;2752343;-60
2022/06/23 10:37:18;;;;;;;;;2.80;2.80;;;;;30.59;25.97;99465.41;6331534;20;2735661;-66
2022/06/23 10:40:12;;;;;;;;;5.20;3.40;;;;;30.07;26.52;99455.69;6332634;20;2747238;-67
2022/06/23 10:43:56;;;;;;;;;10.67;5.00;;;;;29.43;26.35;99460.44;6311549;20;2755454;-63
2022/06/23 10:47:03;;;;;;;;;4.20;3.00;;;;;30.71;25.77;99459.13;6368614;20;2736708;-63
2022/06/23 10:50:18;;;;;;;;;4.00;4.00;;;;;29.82;26.88;99458.50;6332024;20;2724200;-60
2022/06/23 10:53:33;;;;;;;;;5.20;5.20;;;;;31.23;25.37;99467.88;6366300;20;2752391;-67
2022/06/23 10:56:53;;;;;;;;;4.00;3.00;;;;;30.29;25.55;99451.47;6336381;20;2747125;-65
2022/06/23 11:00:02;;;;;;;;;5.00;2.60;;;;;30.44;25.75;99453.03;6335308;20;2739904;-65
2022/06/23 11:03:11;;;;;;;;;4.20;3.00;;;;;30.74;24.47;99448.41;6327791;20;2747142;-65
2022/06/23 11:06:02;;;;;;;;;2.67;2.67;;;;;30.88;26.30;99446.34;6288714;20;2753402;-67
2022/06/23 11:08:43;;;;;;;;;5.00;3.40;;;;;30.68;25.68;99446.56;6347630;20;2742622;-62
2022/06/23 11:11:48;;;;;;;;;6.80;3.60;;;;;31.43;25.37;99445.41;6313241;20;2756496;-62
2022/06/23 11:14:35;;;;;;;;;4.00;3.00;;;;;31.09;25.31;99445.00;6313496;20;2755514;-64
2022/06/23 11:17:43;;;;;;;;;2.80;2.20;;;;;30.15;26.62;99436.06;6315156;20;2741960;-66
2022/06/23 11:20:57;;;;;;;;;4.00;4.00;;;;;30.58;26.84;99443.50;6308764;20;2745037;-67
2022/06/23 11:23:56;;;;;;;;;4.00;4.00;;;;;30.16;25.88;99443.28;6313244;20;2733966;-66
2022/06/23 11:27:01;;;;;;;;;4.00;4.00;;;;;30.18;26.28;99441.13;6322687;20;2730552;-67
2022/06/23 11:30:14;;;;;;;;;6.00;5.60;;;;;29.75;25.99;99445.56;6340823;20;2744083;-67
2022/06/23 11:33:36;;;;;;;;;3.00;3.00;;;;;29.57;26.39;99439.94;6308466;20;2750284;-66
2022/06/23 11:37:11;;;;;;;;;4.40;3.60;;;;;30.45;26.69;99444.50;6306723;20;2748157;-67
2022/06/23 11:40:21;;;;;;;;;4.60;4.00;;;;;29.28;27.38;99438.59;6311962;20;2734842;-65
2022/06/23 11:43:12;;;;;;;;;3.20;2.00;;;;;29.52;27.31;99443.34;6311675;20;2747155;-65
2022/06/23 11:46:12;;;;;;;;;2.80;2.80;;;;;29.19;28.18;99431.66;6310801;20;2737953;-65
2022/06/23 11:49:27;;;;;;;;;5.00;5.00;;;;;29.36;28.14;99443.03;6311998;20;2738903;-65
2022/06/23 11:52:34;;;;;;;;;1.40;1.40;;;;;29.30;29.07;99440.09;6308750;20;2741928;-66
2022/06/23 11:55:32;;;;;;;;;4.40;3.20;;;;;29.17;27.74;99440.16;6308752;20;2752360;-66
2022/06/23 11:58:35;;;;;;;;;3.40;3.40;;;;;29.93;28.09;99443.91;6308506;20;2748160;-65
2022/06/23 12:01:25;;;;;;;;;3.00;3.00;;;;;29.68;26.83;99447.53;6310168;20;2744096;-64
2022/06/23 12:04:28;;;;;;;;;3.60;3.20;;;;;29.82;26.71;99450.19;6320548;20;2746173;-65
2022/06/23 12:07:39;;;;;;;;;2.00;2.00;;;;;29.67;26.75;99450.50;6310250;20;2737941;-66
2022/06/23 12:10:22;;;;;;;;;5.60;4.00;;;;;29.57;27.42;99448.22;6309380;20;2748222;-66
2022/06/23 12:12:58;;;;;;;;;5.00;3.80;;;;;30.06;26.40;99449.31;6306299;20;2744053;-63
2022/06/23 12:15:33;;;;;;;;;5.20;3.40;;;;;29.83;27.23;99452.72;6314224;20;2746086;-62
2022/06/23 12:18:32;;;;;;;;;4.00;4.00;;;;;29.31;27.19;99449.25;6314936;20;2740870;-64
2022/06/23 12:21:22;;;;;;;;;4.80;4.80;;;;;29.83;27.06;99438.88;6306291;20;2744026;-63
2022/06/23 12:24:49;;;;;;;;;4.00;4.00;;;;;29.46;26.40;99438.69;6312806;20;2751280;-63
2022/06/23 12:27:56;;;;;;;;;2.80;2.80;;;;;30.17;25.92;99439.41;6313646;20;2725281;-62
2022/06/23 12:30:27;;;;;;;;;5.00;5.00;;;;;29.66;26.18;99444.13;6340583;20;2749348;-63
2022/06/23 12:33:39;;;;;;;;;3.20;3.20;;;;;29.41;26.34;99435.78;6309260;20;2754402;-67
2022/06/23 12:36:37;;;;;;;;;3.80;3.80;;;;;29.61;26.69;99440.31;6312828;20;2731627;-66
2022/06/23 12:39:38;;;;;;;;;4.60;4.60;;;;;29.47;26.29;99434.88;6338532;20;2740878;-67
2022/06/23 12:42:45;;;;;;;;;4.20;4.00;;;;;29.54;26.74;99441.22;6311400;20;2744061;-66
2022/06/23 12:46:03;;;;;;;;;5.60;5.40;;;;;30.35;26.54;99439.47;6314542;20;2731515;-65
2022/06/23 12:49:36;;;;;;;;;4.00;4.00;;;;;30.28;25.83;99433.19;6316937;20;2735183;-65
2022/06/23 12:52:46;;;;;;;;;7.00;3.20;;;;;30.77;26.01;99439.63;6336369;20;2745132;-66
2022/06/23 12:55:27;;;;;;;;;4.00;4.00;;;;;30.47;26.10;99427.66;6312516;20;2741954;-66
2022/06/23 12:58:47;;;;;;;;;4.60;3.40;;;;;30.83;25.08;99433.22;6309749;20;2748151;-64
2022/06/23 13:01:54;;;;;;;;;2.00;2.00;;;;;30.91;24.28;99428.41;6308530;20;2726295;-64
2022/06/23 13:04:35;;;;;;;;;3.40;3.40;;;;;30.82;24.16;99419.56;6340264;20;2756694;-64
2022/06/23 13:07:31;;;;;;;;;3.40;2.80;;;;;31.26;24.40;99431.34;6310055;20;2748272;-64
2022/06/23 13:10:28;;;;;;;;;4.00;3.20;;;;;31.77;23.96;99420.75;6306490;20;2754894;-64
2022/06/23 13:13:19;;;;;;;;;5.00;3.80;;;;;30.60;25.12;99411.72;6306862;20;2749360;-63
2022/06/23 13:16:03;;;;;;;;;4.00;4.00;;;;;30.10;25.14;99422.03;6310670;20;2737805;-58
2022/06/23 13:18:51;;;;;;;;;5.20;4.40;;;;;30.32;24.61;99420.53;6306631;20;2748214;-61
2022/06/23 13:21:31;;;;;;;;;5.40;4.00;;;;;30.19;24.97;99421.50;6307262;20;2746134;-63
2022/06/23 13:24:19;;;;;;;;;4.20;3.00;;;;;30.95;24.61;99418.53;6306087;20;2748199;-60
2022/06/23 13:27:11;;;;;;;;;4.00;3.40;;;;;30.48;23.95;99423.78;6305909;20;2751332;-64
2022/06/23 13:30:08;;;;;;;;;6.00;4.20;;;;;29.49;25.43;99421.69;6309902;20;2748277;-64
2022/06/23 13:33:22;;;;;;;;;4.80;3.40;;;;;29.39;25.62;99404.72;6306923;20;2739857;-63